Terminal Aerodrome Forecast
Issued by NWS

Home | Current Version | Previous Version | Graphics & Text | Print | Product List | Glossary On
Versions: 1 2 3 4 5 6 7 8 9 10 11 12 13 14 15 16
942
FTUS43 KOAX 082331
TAFCDR
TAF
KCDR 082331Z 0900/0924 VRB05KT P6SM BKN150
     FM090600 12005KT P6SM OVC050
     FM091800 04005KT P6SM SCT050=

USA.gov is the U.S. government's official web portal to all federal, state and local government web resources and services.